createdAt,value
2022-10-13T00:00:50.623Z,33.92
2022-10-13T00:01:52.503Z,45.70
2022-10-13T00:02:55.250Z,37.83
2022-10-13T00:03:57.193Z,40.95
2022-10-13T00:04:59.011Z,34.80
2022-10-13T00:06:00.860Z,36.20
2022-10-13T00:07:02.716Z,37.42
2022-10-13T00:08:05.242Z,35.83
2022-10-13T00:09:07.164Z,35.80
2022-10-13T00:10:09.532Z,36.30
2022-10-13T00:11:23.258Z,35.05
2022-10-13T00:12:25.110Z,36.65
2022-10-13T00:13:28.603Z,40.40
2022-10-13T00:14:30.631Z,35.28
2022-10-13T00:15:33.215Z,31.85
2022-10-13T00:16:35.121Z,40.78
2022-10-13T00:17:37.351Z,46.08
2022-10-13T00:18:39.074Z,45.75
2022-10-13T00:19:40.905Z,37.63
2022-10-13T00:20:48.573Z,37.28
2022-10-13T00:21:50.452Z,37.03
2022-10-13T00:22:52.261Z,38.53
2022-10-13T00:23:54.998Z,32.45
2022-10-13T00:24:56.820Z,40.85
2022-10-13T00:25:58.613Z,39.55
2022-10-13T00:27:00.458Z,37.25
2022-10-13T00:28:02.266Z,37.47
2022-10-13T00:29:04.277Z,39.60
2022-10-13T00:30:06.761Z,35.88
2022-10-13T00:31:15.867Z,34.83
2022-10-13T00:32:18.201Z,38.08
2022-10-13T00:33:20.350Z,32.05
2022-10-13T00:34:22.199Z,34.08
2022-10-13T00:35:24.029Z,33.00
2022-10-13T00:36:26.128Z,31.50
2022-10-13T00:37:28.164Z,32.95
2022-10-13T00:38:29.982Z,36.85
2022-10-13T00:39:32.672Z,38.50
2022-10-13T00:40:34.488Z,36.67
2022-10-13T00:41:36.769Z,33.47
2022-10-13T00:42:41.789Z,33.85
2022-10-13T00:44:01.852Z,36.17
2022-10-13T00:45:12.312Z,34.45
2022-10-13T00:46:15.099Z,37.45
2022-10-13T00:47:17.144Z,37.53
2022-10-13T00:48:28.438Z,37.83
2022-10-13T00:50:37.521Z,38.90
2022-10-13T00:51:42.291Z,41.10
2022-10-13T00:52:44.989Z,34.15
2022-10-13T00:53:48.655Z,36.28
2022-10-13T00:54:51.874Z,35.50
2022-10-13T00:55:56.379Z,34.45
2022-10-13T00:56:58.275Z,24.60
2022-10-13T00:58:05.322Z,34.38
2022-10-13T00:59:13.704Z,23.75
2022-10-13T01:00:15.883Z,30.95
2022-10-13T01:01:18.093Z,27.55
2022-10-13T01:02:20.565Z,25.25
2022-10-13T01:03:23.257Z,30.88
2022-10-13T01:04:28.660Z,27.70
2022-10-13T01:05:31.160Z,28.85
2022-10-13T01:06:33.944Z,27.48
2022-10-13T01:07:36.683Z,26.40
2022-10-13T01:08:39.229Z,25.75
2022-10-13T01:09:42.568Z,24.10
2022-10-13T01:11:23.005Z,27.27
2022-10-13T01:12:46.709Z,28.95
2022-10-13T01:14:25.727Z,26.60
2022-10-13T01:15:34.252Z,21.60
2022-10-13T01:17:03.915Z,21.67
2022-10-13T01:18:17.451Z,28.00
2022-10-13T01:19:34.236Z,26.58
2022-10-13T01:20:50.868Z,27.77
2022-10-13T01:22:06.701Z,24.08
2022-10-13T01:23:31.225Z,28.25
2022-10-13T01:24:55.392Z,22.27
2022-10-13T01:26:30.217Z,23.33
2022-10-13T01:27:47.044Z,28.73
2022-10-13T01:29:33.673Z,26.92
2022-10-13T01:30:42.997Z,23.02
2022-10-13T01:33:05.652Z,29.33
2022-10-13T01:34:14.847Z,26.67
2022-10-13T01:35:41.576Z,28.00
2022-10-13T01:37:08.240Z,24.85
2022-10-13T01:38:23.264Z,31.05
2022-10-13T01:39:28.780Z,24.15
2022-10-13T01:40:38.779Z,23.98
2022-10-13T01:41:44.625Z,26.73
2022-10-13T01:42:59.032Z,25.98
2022-10-13T01:44:13.107Z,25.55
2022-10-13T01:45:19.223Z,23.75
2022-10-13T01:46:26.857Z,28.60
2022-10-13T01:47:32.583Z,28.67
2022-10-13T01:48:37.405Z,27.00
2022-10-13T01:49:39.757Z,28.35
2022-10-13T01:50:42.715Z,27.90
2022-10-13T01:51:46.564Z,27.30
2022-10-13T01:52:49.322Z,31.52
2022-10-13T01:53:52.143Z,31.42
2022-10-13T01:54:55.005Z,26.88
2022-10-13T01:56:00.122Z,28.65
2022-10-13T01:57:02.504Z,26.65
2022-10-13T01:58:04.486Z,32.47
2022-10-13T01:59:13.130Z,31.30
2022-10-13T02:00:18.211Z,28.88
2022-10-13T02:01:51.015Z,28.92
2022-10-13T02:03:17.943Z,30.50
2022-10-13T02:04:35.676Z,28.55
2022-10-13T02:05:50.434Z,29.23
2022-10-13T02:06:53.976Z,33.97
2022-10-13T02:08:13.372Z,27.67
2022-10-13T02:09:24.512Z,29.33
2022-10-13T02:10:40.097Z,29.85
2022-10-13T02:11:56.544Z,30.92
2022-10-13T02:13:04.358Z,34.78
2022-10-13T02:14:29.828Z,32.53
2022-10-13T02:15:37.410Z,29.17
2022-10-13T02:16:43.949Z,30.30
2022-10-13T02:17:45.849Z,35.78
2022-10-13T02:18:48.027Z,27.15
2022-10-13T02:19:49.947Z,26.58
2022-10-13T02:20:52.589Z,33.47
2022-10-13T02:21:56.524Z,34.47
2022-10-13T02:23:04.487Z,31.50
2022-10-13T02:24:07.202Z,31.83
2022-10-13T02:25:09.663Z,30.02
2022-10-13T02:26:11.505Z,37.63
2022-10-13T02:27:13.848Z,30.20
2022-10-13T02:28:16.180Z,32.78
2022-10-13T02:29:18.977Z,35.45
2022-10-13T02:30:24.448Z,31.40
2022-10-13T02:31:26.535Z,32.05
2022-10-13T02:32:28.676Z,31.27
2022-10-13T02:33:30.488Z,28.42
2022-10-13T02:34:32.562Z,36.42
2022-10-13T02:35:34.580Z,23.02
2022-10-13T02:36:40.219Z,32.88
2022-10-13T02:37:42.022Z,34.45
2022-10-13T02:38:43.858Z,32.70
2022-10-13T02:39:45.734Z,35.67
2022-10-13T02:40:47.571Z,31.60
2022-10-13T02:41:49.372Z,31.02
2022-10-13T02:42:51.193Z,34.67
2022-10-13T02:43:53.123Z,33.05
2022-10-13T02:44:54.972Z,32.67
2022-10-13T02:45:56.854Z,36.28
2022-10-13T02:46:58.809Z,31.83
2022-10-13T02:48:00.773Z,33.72
2022-10-13T02:49:02.594Z,34.22
2022-10-13T02:50:05.142Z,37.42
2022-10-13T02:51:07.024Z,27.67
2022-10-13T02:52:08.848Z,34.97
2022-10-13T02:53:10.659Z,34.00
2022-10-13T02:54:12.456Z,28.88
2022-10-13T02:55:14.372Z,26.05
2022-10-13T02:56:16.348Z,33.08
2022-10-13T02:57:18.911Z,31.73
2022-10-13T02:58:20.732Z,34.92
2022-10-13T02:59:22.528Z,38.72
2022-10-13T03:00:25.211Z,34.00
2022-10-13T03:01:26.902Z,29.13
2022-10-13T03:02:28.767Z,31.48
2022-10-13T03:03:30.622Z,31.10
2022-10-13T03:04:33.003Z,34.58
2022-10-13T03:05:34.709Z,46.42
2022-10-13T03:06:36.587Z,33.90
2022-10-13T03:07:38.609Z,29.52
2022-10-13T03:08:40.405Z,30.33
2022-10-13T03:09:42.197Z,28.63
2022-10-13T03:10:44.360Z,32.40
2022-10-13T03:11:46.104Z,28.48
2022-10-13T03:12:47.975Z,34.00
2022-10-13T03:13:49.650Z,24.20
2022-10-13T03:14:51.475Z,29.88
2022-10-13T03:15:53.506Z,29.90
2022-10-13T03:16:55.369Z,32.53
2022-10-13T03:17:57.200Z,38.05
2022-10-13T03:18:59.028Z,39.42
2022-10-13T03:20:00.905Z,24.83
2022-10-13T03:21:06.546Z,25.65
2022-10-13T03:22:08.416Z,30.58
2022-10-13T03:23:10.523Z,29.65
2022-10-13T03:24:12.586Z,28.35
2022-10-13T03:25:14.524Z,28.25
2022-10-13T03:26:16.876Z,30.88
2022-10-13T03:27:18.723Z,25.13
2022-10-13T03:28:20.900Z,32.03
2022-10-13T03:29:23.434Z,28.73
2022-10-13T03:30:25.784Z,26.52
2022-10-13T03:31:28.169Z,27.67
2022-10-13T03:32:32.737Z,25.95
2022-10-13T03:33:34.816Z,27.80
2022-10-13T03:34:36.623Z,26.27
2022-10-13T03:35:38.498Z,24.27
2022-10-13T03:36:40.309Z,28.40
2022-10-13T03:37:42.155Z,23.27
2022-10-13T03:38:44.691Z,25.48
2022-10-13T03:39:46.592Z,30.15
2022-10-13T03:40:48.419Z,24.40
2022-10-13T03:41:50.241Z,27.33
2022-10-13T03:42:52.078Z,29.65
2022-10-13T03:43:54.419Z,34.72
2022-10-13T03:44:56.754Z,29.63
2022-10-13T03:46:00.549Z,23.58
2022-10-13T03:47:02.380Z,25.08
2022-10-13T03:48:04.459Z,29.73
2022-10-13T03:49:06.701Z,30.45
2022-10-13T03:50:10.169Z,25.10
2022-10-13T03:51:17.769Z,26.90
2022-10-13T03:52:19.768Z,42.10
2022-10-13T03:53:22.325Z,26.05
2022-10-13T03:54:24.868Z,24.30
2022-10-13T03:55:26.832Z,22.92
2022-10-13T03:56:29.372Z,28.95
2022-10-13T03:57:31.253Z,31.35
2022-10-13T03:58:33.330Z,25.73
2022-10-13T03:59:37.008Z,27.00
2022-10-13T04:00:39.019Z,28.17
2022-10-13T04:01:40.988Z,26.15
2022-10-13T04:02:42.801Z,22.52
2022-10-13T04:03:44.761Z,26.83
2022-10-13T04:04:46.628Z,25.83
2022-10-13T04:05:48.714Z,29.27
2022-10-13T04:06:50.690Z,25.90
2022-10-13T04:07:52.511Z,31.02
2022-10-13T04:08:55.469Z,22.77
2022-10-13T04:09:57.495Z,35.58
2022-10-13T04:11:08.389Z,30.63
2022-10-13T04:12:10.254Z,33.20
2022-10-13T04:13:13.082Z,27.27
2022-10-13T04:14:14.928Z,25.70
2022-10-13T04:15:16.831Z,24.50
2022-10-13T04:16:24.647Z,22.95
2022-10-13T04:17:26.589Z,24.00
2022-10-13T04:18:28.433Z,19.02
2022-10-13T04:19:30.709Z,23.60
2022-10-13T04:20:35.429Z,24.98
2022-10-13T04:21:37.261Z,27.90
2022-10-13T04:22:39.192Z,27.67
2022-10-13T04:23:41.126Z,31.65
2022-10-13T04:24:43.043Z,38.13
2022-10-13T04:25:44.872Z,30.02
2022-10-13T04:26:46.742Z,23.60
2022-10-13T04:27:48.730Z,28.17
2022-10-13T04:28:53.654Z,33.83
2022-10-13T04:29:55.483Z,32.50
2022-10-13T04:30:59.551Z,29.17
2022-10-13T04:32:01.371Z,24.23
2022-10-13T04:33:03.449Z,37.53
2022-10-13T04:34:05.416Z,27.45
2022-10-13T04:35:07.498Z,24.83
2022-10-13T04:36:12.286Z,29.38
2022-10-13T04:37:14.139Z,28.50
2022-10-13T04:38:16.158Z,26.75
2022-10-13T04:39:18.736Z,28.45
2022-10-13T04:40:20.587Z,32.10
2022-10-13T04:41:23.156Z,29.77
2022-10-13T04:42:25.155Z,27.85
2022-10-13T04:43:27.278Z,30.38
2022-10-13T04:44:29.141Z,39.13
2022-10-13T04:45:31.166Z,34.33
2022-10-13T04:46:32.987Z,31.35
2022-10-13T04:47:37.090Z,39.88
2022-10-13T04:48:39.064Z,29.48
2022-10-13T04:49:40.923Z,25.50
2022-10-13T04:50:42.782Z,35.75
2022-10-13T04:51:44.970Z,34.15
2022-10-13T04:52:46.786Z,34.92
2022-10-13T04:53:48.774Z,33.00
2022-10-13T04:54:50.613Z,30.30
2022-10-13T04:55:52.480Z,26.55
2022-10-13T04:56:54.343Z,31.52
2022-10-13T04:57:56.241Z,29.08
2022-10-13T04:58:58.252Z,33.92
2022-10-13T05:00:00.021Z,31.08
2022-10-13T05:01:03.113Z,37.53
2022-10-13T05:02:04.963Z,40.58
2022-10-13T05:03:06.789Z,28.33
2022-10-13T05:04:09.841Z,40.42
2022-10-13T05:05:11.763Z,41.08
2022-10-13T05:06:18.380Z,36.92
2022-10-13T05:07:20.196Z,39.47
2022-10-13T05:08:22.172Z,41.00
2022-10-13T05:09:24.025Z,27.88
2022-10-13T05:10:25.731Z,37.58
2022-10-13T05:11:28.942Z,36.15
2022-10-13T05:12:30.820Z,42.20
2022-10-13T05:13:32.662Z,39.25
2022-10-13T05:14:35.048Z,41.20
2022-10-13T05:15:39.280Z,40.42
2022-10-13T05:16:41.012Z,46.38
2022-10-13T05:17:42.880Z,42.88
2022-10-13T05:18:44.760Z,41.97
2022-10-13T05:19:46.593Z,41.50
2022-10-13T05:20:48.463Z,45.15
2022-10-13T05:21:50.467Z,48.67
2022-10-13T05:22:52.587Z,50.10
2022-10-13T05:23:56.354Z,43.88
2022-10-13T05:24:58.197Z,52.88
2022-10-13T05:26:07.871Z,29.58
2022-10-13T05:27:11.521Z,29.88
2022-10-13T05:28:13.776Z,31.52
2022-10-13T05:29:15.737Z,32.55
2022-10-13T05:30:17.746Z,30.35
2022-10-13T05:31:22.362Z,28.27
2022-10-13T05:32:24.108Z,33.08
2022-10-13T05:33:25.916Z,38.92
2022-10-13T05:34:27.714Z,32.88
2022-10-13T05:35:29.507Z,30.08
2022-10-13T05:36:34.175Z,33.17
2022-10-13T05:37:43.554Z,36.75
2022-10-13T05:38:45.931Z,29.00
2022-10-13T05:39:48.935Z,29.80
2022-10-13T05:40:50.735Z,28.58
2022-10-13T05:41:52.480Z,37.13
2022-10-13T05:42:54.671Z,31.27
2022-10-13T05:44:06.628Z,31.10
2022-10-13T05:45:10.220Z,30.00
2022-10-13T05:46:12.151Z,36.13
2022-10-13T05:47:14.055Z,41.88
2022-10-13T05:48:15.870Z,33.15
2022-10-13T05:49:17.990Z,26.58
2022-10-13T05:50:19.704Z,29.60
2022-10-13T05:51:26.224Z,35.03
2022-10-13T05:52:32.289Z,154.98
2022-10-13T05:53:38.146Z,89.95
2022-10-13T05:54:46.285Z,61.58
2022-10-13T05:55:48.058Z,72.40
2022-10-13T05:57:00.804Z,68.78
2022-10-13T05:58:02.648Z,69.55
2022-10-13T05:59:07.429Z,54.92
2022-10-13T06:00:12.925Z,51.72
2022-10-13T06:01:18.609Z,64.90
2022-10-13T06:02:24.848Z,62.28
2022-10-13T06:03:28.800Z,54.40
2022-10-13T06:04:35.936Z,60.55
2022-10-13T06:05:38.277Z,45.97
2022-10-13T06:06:40.291Z,48.05
2022-10-13T06:07:43.716Z,61.63
2022-10-13T06:08:45.698Z,50.03
2022-10-13T06:09:48.558Z,49.97
2022-10-13T06:10:51.090Z,45.75
2022-10-13T06:11:52.777Z,55.65
2022-10-13T06:12:54.996Z,55.38
2022-10-13T06:13:56.860Z,44.30
2022-10-13T06:14:58.600Z,50.58
2022-10-13T06:16:00.769Z,47.47
2022-10-13T06:17:02.628Z,45.85
2022-10-13T06:18:09.094Z,51.22
2022-10-13T06:19:11.093Z,66.18
2022-10-13T06:20:13.189Z,64.57
2022-10-13T06:21:14.900Z,71.03
2022-10-13T06:22:17.774Z,83.20
2022-10-13T06:23:19.826Z,105.32
2022-10-13T06:24:21.764Z,112.97
2022-10-13T06:25:23.583Z,144.13
2022-10-13T06:26:25.411Z,126.00
2022-10-13T06:27:27.408Z,96.35
2022-10-13T06:28:29.284Z,117.10
2022-10-13T06:29:33.027Z,152.48
2022-10-13T06:30:34.731Z,142.02
2022-10-13T06:31:36.445Z,153.00
2022-10-13T06:32:38.423Z,172.05
2022-10-13T06:33:40.247Z,238.10
2022-10-13T06:34:42.384Z,173.63
2022-10-13T06:35:44.118Z,181.27
2022-10-13T06:36:45.925Z,168.52
2022-10-13T06:37:48.686Z,188.23
2022-10-13T06:38:50.784Z,210.82
2022-10-13T06:39:52.458Z,215.32
2022-10-13T06:40:54.291Z,196.52
2022-10-13T06:41:56.238Z,138.57
2022-10-13T06:42:58.886Z,160.23
2022-10-13T06:44:00.672Z,180.68
2022-10-13T06:45:02.523Z,192.93
2022-10-13T06:46:04.765Z,197.75
2022-10-13T06:47:07.086Z,164.73
2022-10-13T06:48:08.878Z,179.02
2022-10-13T06:49:10.723Z,221.00
2022-10-13T06:50:13.077Z,187.57
2022-10-13T06:51:15.484Z,138.82
2022-10-13T06:52:17.603Z,146.95
2022-10-13T06:53:19.710Z,125.90
2022-10-13T06:54:21.732Z,120.90
2022-10-13T06:55:23.476Z,99.25
2022-10-13T06:56:25.805Z,97.20
2022-10-13T06:57:27.641Z,90.10
2022-10-13T06:58:29.321Z,94.18
2022-10-13T06:59:30.967Z,89.55
2022-10-13T07:00:32.816Z,78.93
2022-10-13T07:01:39.142Z,82.13
2022-10-13T07:02:44.506Z,84.63
2022-10-13T07:03:49.502Z,74.03
2022-10-13T07:04:51.180Z,72.82
2022-10-13T07:05:53.125Z,62.00
2022-10-13T07:06:54.896Z,64.07
2022-10-13T07:07:57.126Z,61.00
2022-10-13T07:08:58.934Z,44.03
2022-10-13T07:10:00.584Z,37.72
2022-10-13T07:11:16.081Z,40.28
2022-10-13T07:12:18.807Z,33.42
2022-10-13T07:14:22.262Z,36.53
2022-10-13T07:15:27.095Z,36.88
2022-10-13T07:16:29.340Z,40.58
2022-10-13T07:17:31.121Z,42.33
2022-10-13T07:18:33.042Z,37.30
2022-10-13T07:19:34.856Z,43.70
2022-10-13T07:20:36.930Z,40.13
2022-10-13T07:21:38.595Z,40.17
2022-10-13T07:22:40.658Z,48.33
2022-10-13T07:23:42.464Z,36.83
2022-10-13T07:24:44.941Z,39.85
2022-10-13T07:25:46.755Z,43.08
2022-10-13T07:26:48.481Z,38.58
2022-10-13T07:27:50.291Z,39.20
2022-10-13T07:28:53.253Z,41.13
2022-10-13T07:29:55.132Z,43.80
2022-10-13T07:30:56.842Z,35.63
2022-10-13T07:31:58.756Z,41.35
2022-10-13T07:33:00.792Z,30.90
2022-10-13T07:34:04.847Z,32.42
2022-10-13T07:35:06.991Z,43.75
2022-10-13T07:36:09.862Z,31.08
2022-10-13T07:37:12.055Z,34.60
2022-10-13T07:38:14.186Z,34.53
2022-10-13T07:39:16.076Z,34.38
2022-10-13T07:40:17.924Z,36.70
2022-10-13T07:41:19.913Z,52.47
2022-10-13T07:42:22.118Z,33.33
2022-10-13T07:43:24.003Z,38.63
2022-10-13T07:44:27.289Z,35.97
2022-10-13T07:45:29.426Z,35.22
2022-10-13T07:46:31.381Z,36.58
2022-10-13T07:47:33.039Z,37.65
2022-10-13T07:48:35.822Z,40.47
2022-10-13T07:49:37.542Z,44.13
2022-10-13T07:50:39.436Z,35.53
2022-10-13T07:51:41.329Z,41.78
2022-10-13T07:52:46.276Z,37.45
2022-10-13T07:53:49.073Z,38.08
2022-10-13T07:54:53.020Z,36.03
2022-10-13T07:55:54.891Z,31.75
2022-10-13T07:56:56.906Z,36.25
2022-10-13T07:58:02.285Z,38.80
2022-10-13T07:59:05.784Z,37.63
2022-10-13T08:00:08.691Z,43.55
2022-10-13T08:01:11.738Z,49.45
2022-10-13T08:02:13.755Z,37.88
2022-10-13T08:03:15.873Z,35.00
2022-10-13T08:04:17.802Z,37.20
2022-10-13T08:05:20.085Z,30.67
2022-10-13T08:06:22.783Z,34.80
2022-10-13T08:07:24.661Z,30.55
2022-10-13T08:08:28.372Z,37.65
2022-10-13T08:09:30.137Z,29.48
2022-10-13T08:10:32.006Z,27.63
2022-10-13T08:11:34.281Z,32.20
2022-10-13T08:12:36.860Z,36.00
2022-10-13T08:13:38.635Z,23.83
2022-10-13T08:14:40.526Z,32.83
2022-10-13T08:15:43.716Z,28.70
2022-10-13T08:16:48.675Z,32.30
2022-10-13T08:17:53.193Z,30.00
2022-10-13T08:18:55.380Z,33.13
2022-10-13T08:19:57.106Z,39.67
2022-10-13T08:22:28.251Z,25.15
2022-10-13T08:23:30.734Z,23.30
2022-10-13T08:24:32.426Z,34.03
2022-10-13T08:25:44.744Z,37.38
2022-10-13T08:26:47.170Z,24.77
2022-10-13T08:27:51.395Z,20.70
2022-10-13T08:30:16.293Z,29.48
2022-10-13T08:31:18.772Z,27.58
2022-10-13T08:32:22.399Z,23.63
2022-10-13T08:33:26.584Z,24.85
2022-10-13T08:34:28.377Z,21.80
2022-10-13T08:35:34.918Z,26.33
2022-10-13T08:36:37.534Z,25.48
2022-10-13T08:37:39.564Z,16.30
2022-10-13T08:38:41.876Z,19.98
2022-10-13T08:39:44.320Z,17.38
2022-10-13T08:40:50.740Z,19.50
2022-10-13T08:41:53.371Z,16.95
2022-10-13T08:43:00.128Z,17.70
2022-10-13T08:44:56.713Z,21.30
2022-10-13T08:45:41.977Z,17.75
2022-10-13T08:46:53.241Z,15.13
2022-10-13T08:48:02.249Z,19.55
2022-10-13T08:49:05.805Z,20.33
2022-10-13T08:50:14.726Z,19.45
2022-10-13T08:51:17.330Z,22.75
2022-10-13T08:52:25.984Z,26.73
2022-10-13T08:53:40.223Z,23.92
2022-10-13T08:54:42.201Z,17.63
2022-10-13T08:55:50.168Z,21.60
2022-10-13T08:56:53.292Z,17.73
2022-10-13T08:57:55.536Z,24.67
2022-10-13T08:58:58.192Z,20.73
2022-10-13T09:00:03.219Z,20.92
2022-10-13T09:01:11.522Z,23.00
2022-10-13T09:02:27.339Z,21.15
2022-10-13T09:03:29.956Z,21.67
2022-10-13T09:04:36.304Z,23.17
2022-10-13T09:06:18.209Z,21.50
2022-10-13T09:07:26.705Z,26.52
2022-10-13T09:08:44.410Z,21.15
2022-10-13T09:09:51.861Z,18.60
2022-10-13T09:10:53.897Z,15.88
2022-10-13T09:11:55.938Z,25.05
2022-10-13T09:12:59.670Z,20.13
2022-10-13T09:14:09.138Z,28.08
2022-10-13T09:15:12.632Z,22.13
2022-10-13T09:16:14.518Z,20.23
2022-10-13T09:17:21.263Z,19.25
2022-10-13T09:18:30.678Z,19.92
2022-10-13T09:19:36.440Z,17.50
2022-10-13T09:20:39.074Z,17.08
2022-10-13T09:21:41.070Z,17.40
2022-10-13T09:22:43.367Z,17.02
2022-10-13T09:23:45.390Z,16.83
2022-10-13T09:24:47.131Z,15.98
2022-10-13T09:25:52.928Z,14.88
2022-10-13T09:27:16.103Z,18.48
2022-10-13T09:28:28.600Z,22.83
2022-10-13T09:29:30.564Z,21.83
2022-10-13T09:30:37.010Z,30.85
2022-10-13T09:31:39.165Z,62.05
2022-10-13T09:32:41.097Z,37.40
2022-10-13T09:33:43.589Z,108.53
2022-10-13T09:34:46.454Z,73.07
2022-10-13T09:36:00.505Z,107.57
2022-10-13T09:37:05.264Z,157.43
2022-10-13T09:38:11.366Z,77.70
2022-10-13T09:39:16.025Z,66.80
2022-10-13T09:40:21.841Z,44.72
2022-10-13T09:41:23.974Z,41.08
2022-10-13T09:42:27.931Z,197.68
2022-10-13T09:43:32.606Z,77.88
2022-10-13T09:44:34.456Z,28.55
2022-10-13T09:45:36.435Z,25.38
2022-10-13T09:46:46.764Z,40.63
2022-10-13T09:47:59.229Z,28.90
2022-10-13T09:49:22.562Z,23.63
2022-10-13T09:50:32.793Z,25.83
2022-10-13T09:51:41.180Z,25.83
2022-10-13T09:52:46.163Z,20.23
2022-10-13T09:53:49.378Z,30.80
2022-10-13T09:54:56.871Z,21.40
2022-10-13T09:56:35.191Z,22.38
2022-10-13T09:57:47.499Z,29.00
2022-10-13T09:59:10.561Z,28.40
2022-10-13T10:00:24.704Z,25.95
2022-10-13T10:01:31.090Z,25.05
2022-10-13T10:03:04.061Z,30.63
2022-10-13T10:04:11.169Z,26.35
2022-10-13T10:05:40.823Z,29.70
2022-10-13T10:06:45.389Z,30.58
2022-10-13T10:07:47.809Z,30.23
2022-10-13T10:09:03.333Z,29.90
2022-10-13T10:10:35.682Z,28.58
2022-10-13T10:12:50.367Z,33.83
2022-10-13T10:13:52.976Z,33.50
2022-10-13T10:14:54.802Z,35.40
2022-10-13T10:16:07.800Z,31.25
2022-10-13T10:17:09.650Z,38.00
2022-10-13T10:18:17.560Z,38.53
2022-10-13T10:19:23.104Z,32.58
2022-10-13T10:20:38.831Z,38.33
2022-10-13T10:22:13.073Z,30.88
2022-10-13T10:23:24.736Z,36.33
2022-10-13T10:24:46.390Z,34.25
2022-10-13T10:26:05.628Z,29.83
2022-10-13T10:28:54.761Z,41.70
2022-10-13T10:30:05.272Z,31.35
2022-10-13T10:31:31.941Z,25.27
2022-10-13T10:32:39.585Z,25.10
2022-10-13T10:34:06.644Z,27.10
2022-10-13T10:35:18.253Z,25.92
2022-10-13T10:36:26.385Z,29.50
2022-10-13T10:37:37.505Z,26.27
2022-10-13T10:40:09.699Z,30.17
2022-10-13T10:41:39.869Z,27.40
2022-10-13T10:43:21.893Z,29.50
2022-10-13T10:44:43.003Z,24.25
2022-10-13T10:45:47.881Z,32.17
2022-10-13T10:46:50.839Z,28.17
2022-10-13T10:48:00.637Z,33.78
2022-10-13T10:49:17.088Z,28.02
2022-10-13T10:50:19.583Z,24.83
2022-10-13T10:51:25.500Z,26.50
2022-10-13T10:52:33.362Z,21.13
2022-10-13T10:53:42.771Z,23.98
2022-10-13T10:54:54.438Z,20.65
2022-10-13T10:56:19.516Z,19.17
2022-10-13T10:57:38.193Z,25.65
2022-10-13T10:59:03.063Z,22.13
2022-10-13T11:00:11.846Z,19.85
2022-10-13T11:01:25.003Z,22.33
2022-10-13T11:02:39.879Z,20.23
2022-10-13T11:04:31.059Z,24.00
2022-10-13T11:05:57.597Z,20.40
2022-10-13T11:06:59.968Z,24.38
2022-10-13T11:08:01.910Z,20.95
2022-10-13T11:09:06.059Z,24.45
2022-10-13T11:10:14.215Z,23.52
2022-10-13T11:11:33.546Z,23.77
2022-10-13T11:12:53.280Z,21.98
2022-10-13T11:14:07.391Z,25.20
2022-10-13T11:15:14.696Z,27.02
2022-10-13T11:16:35.727Z,18.35
2022-10-13T11:17:42.268Z,21.88
2022-10-13T11:19:06.063Z,21.77
2022-10-13T11:20:20.498Z,25.10
2022-10-13T11:21:22.610Z,26.50
2022-10-13T11:22:29.772Z,24.92
2022-10-13T11:23:33.603Z,23.45
2022-10-13T11:24:41.458Z,20.80
2022-10-13T11:25:49.191Z,23.35
2022-10-13T11:26:51.411Z,22.55
2022-10-13T11:27:53.097Z,25.90
2022-10-13T11:28:55.462Z,26.05
2022-10-13T11:29:59.459Z,25.55
2022-10-13T11:31:24.471Z,23.00
2022-10-13T11:32:26.806Z,21.05
2022-10-13T11:33:41.150Z,29.50
2022-10-13T11:35:05.987Z,23.38
2022-10-13T11:36:36.847Z,27.48
2022-10-13T11:38:07.684Z,27.75
2022-10-13T11:39:36.525Z,23.42
2022-10-13T11:40:56.967Z,21.30
2022-10-13T11:42:23.244Z,23.05
2022-10-13T11:43:41.588Z,22.75
2022-10-13T11:44:55.610Z,19.40
2022-10-13T11:46:27.015Z,21.60
2022-10-13T11:49:38.340Z,26.52
2022-10-13T11:51:03.328Z,20.90
2022-10-13T11:52:19.869Z,21.38
2022-10-13T11:53:26.433Z,21.13
2022-10-13T11:54:36.748Z,22.35
2022-10-13T11:55:50.502Z,17.63
2022-10-13T11:56:55.026Z,18.65
2022-10-13T11:58:16.127Z,24.38
2022-10-13T11:59:28.390Z,17.45
2022-10-13T12:00:30.245Z,13.68
2022-10-13T12:01:32.132Z,13.82
2022-10-13T12:02:33.979Z,14.93
2022-10-13T12:03:39.294Z,18.90
2022-10-13T12:04:45.664Z,17.02
2022-10-13T12:05:50.236Z,18.35
2022-10-13T12:06:59.601Z,13.70
2022-10-13T12:08:04.819Z,14.20
2022-10-13T12:09:17.571Z,11.48
2022-10-13T12:10:35.964Z,13.88
2022-10-13T12:11:38.664Z,12.75
2022-10-13T12:12:48.210Z,13.05
2022-10-13T12:13:50.148Z,12.75
2022-10-13T12:14:55.362Z,13.68
2022-10-13T12:16:06.640Z,16.83
2022-10-13T12:17:23.779Z,13.27
2022-10-13T12:18:36.229Z,16.10
2022-10-13T12:19:41.025Z,15.02
2022-10-13T12:20:42.975Z,14.13
2022-10-13T12:21:57.045Z,14.88
2022-10-13T12:22:59.375Z,17.25
2022-10-13T12:24:13.931Z,14.45
2022-10-13T12:25:17.282Z,16.77
2022-10-13T12:26:23.091Z,13.20
2022-10-13T12:27:25.331Z,15.25
2022-10-13T12:28:31.044Z,18.95
2022-10-13T12:29:37.234Z,10.32
2022-10-13T12:30:39.244Z,18.15
2022-10-13T12:31:44.100Z,13.35
2022-10-13T12:32:50.928Z,13.18
2022-10-13T12:33:55.600Z,15.15
2022-10-13T12:35:09.973Z,14.55
2022-10-13T12:36:14.797Z,13.90
2022-10-13T12:37:31.067Z,11.15
2022-10-13T12:38:33.100Z,12.55
2022-10-13T12:39:37.177Z,12.10
2022-10-13T12:40:39.753Z,14.23
2022-10-13T12:41:45.505Z,14.40
2022-10-13T12:42:48.866Z,10.80
2022-10-13T12:43:51.968Z,11.15
2022-10-13T12:44:54.069Z,12.07
2022-10-13T12:45:55.940Z,11.60
2022-10-13T12:47:00.791Z,12.45
2022-10-13T12:48:02.528Z,13.00
2022-10-13T12:49:28.499Z,16.23
2022-10-13T12:50:35.939Z,18.80
2022-10-13T12:51:38.312Z,13.57
2022-10-13T12:52:40.159Z,12.70
2022-10-13T12:53:42.663Z,15.20
2022-10-13T12:54:54.262Z,11.38
2022-10-13T12:55:59.406Z,14.85
2022-10-13T12:57:06.286Z,15.55
2022-10-13T12:58:25.442Z,12.23
2022-10-13T12:59:29.071Z,13.07
2022-10-13T13:00:31.124Z,13.05
2022-10-13T13:01:35.265Z,15.80
2022-10-13T13:02:37.055Z,17.25
2022-10-13T13:03:41.122Z,14.27
2022-10-13T13:04:44.252Z,13.38
2022-10-13T13:05:51.661Z,16.35
2022-10-13T13:07:04.127Z,14.05
2022-10-13T13:08:30.285Z,13.15
2022-10-13T13:09:39.181Z,13.77
2022-10-13T13:10:58.140Z,14.60
2022-10-13T13:12:12.119Z,17.63
2022-10-13T13:13:15.393Z,17.25
2022-10-13T13:14:40.796Z,13.70
2022-10-13T13:15:43.015Z,12.05
2022-10-13T13:17:45.443Z,14.43
2022-10-13T13:18:47.157Z,18.65
2022-10-13T13:19:52.114Z,16.90
2022-10-13T13:20:55.182Z,15.90
2022-10-13T13:21:57.059Z,14.07
2022-10-13T13:22:59.187Z,14.65
2022-10-13T13:24:01.482Z,16.80
2022-10-13T13:25:06.905Z,13.52
2022-10-13T13:26:20.621Z,15.45
2022-10-13T13:27:41.012Z,16.08
2022-10-13T13:28:55.105Z,12.02
2022-10-13T13:29:56.959Z,19.38
2022-10-13T13:30:59.194Z,14.52
2022-10-13T13:32:01.363Z,14.55
2022-10-13T13:33:03.377Z,13.63
2022-10-13T13:34:05.194Z,14.30
2022-10-13T13:35:08.502Z,10.93
2022-10-13T13:36:18.943Z,11.65
2022-10-13T13:37:35.165Z,16.67
2022-10-13T13:38:57.591Z,19.38
2022-10-13T13:39:59.564Z,12.38
2022-10-13T13:41:04.033Z,13.90
2022-10-13T13:42:06.662Z,12.63
2022-10-13T13:43:09.639Z,15.57
2022-10-13T13:44:11.433Z,12.00
2022-10-13T13:45:15.146Z,13.68
2022-10-13T13:46:21.324Z,12.38
2022-10-13T13:47:25.578Z,11.98
2022-10-13T13:48:27.450Z,12.88
2022-10-13T13:49:29.252Z,17.90
2022-10-13T13:50:38.041Z,16.83
2022-10-13T13:51:40.549Z,17.38
2022-10-13T13:52:42.539Z,16.23
2022-10-13T13:53:44.757Z,13.65
2022-10-13T13:54:46.773Z,13.77
2022-10-13T13:55:48.960Z,18.08
2022-10-13T13:56:52.571Z,15.18
2022-10-13T13:57:58.151Z,17.30
2022-10-13T13:59:00.213Z,13.18
2022-10-13T14:00:02.289Z,13.45
2022-10-13T14:01:04.624Z,13.68
2022-10-13T14:02:11.941Z,15.15
2022-10-13T14:03:17.151Z,12.13
2022-10-13T14:04:21.204Z,14.30
2022-10-13T14:05:24.082Z,18.17
2022-10-13T14:06:25.958Z,13.43
2022-10-13T14:07:27.952Z,14.38
2022-10-13T14:08:35.310Z,10.40
2022-10-13T14:09:37.130Z,16.48
2022-10-13T14:10:41.612Z,15.70
2022-10-13T14:11:43.848Z,14.45
2022-10-13T14:12:45.677Z,13.25
2022-10-13T14:13:48.169Z,16.45
2022-10-13T14:14:50.873Z,17.23
2022-10-13T14:16:00.121Z,16.88
2022-10-13T14:17:04.131Z,14.55
2022-10-13T14:18:06.427Z,14.05
2022-10-13T14:19:10.193Z,16.23
2022-10-13T14:20:12.452Z,15.95
2022-10-13T14:21:14.430Z,15.60
2022-10-13T14:22:16.449Z,14.65